sensor_id;sensor_type;location;lat;lon;timestamp;P1;durP1;ratioP1;P2;durP2;ratioP2
47715;SDS011;33476;50.984;3.538;2023-08-06T00:01:42;8.88;;;3.65;;
47715;SDS011;33476;50.984;3.538;2023-08-06T00:04:07;5.07;;;3.00;;
47715;SDS011;33476;50.984;3.538;2023-08-06T00:06:33;8.88;;;3.13;;
47715;SDS011;33476;50.984;3.538;2023-08-06T00:08:58;5.15;;;2.58;;
47715;SDS011;33476;50.984;3.538;2023-08-06T00:11:23;7.60;;;2.22;;
47715;SDS011;33476;50.984;3.538;2023-08-06T00:13:49;6.32;;;0.85;;
47715;SDS011;33476;50.984;3.538;2023-08-06T00:16:14;3.47;;;0.40;;
47715;SDS011;33476;50.984;3.538;2023-08-06T00:18:40;8.60;;;0.50;;
47715;SDS011;33476;50.984;3.538;2023-08-06T00:21:05;4.68;;;0.38;;
47715;SDS011;33476;50.984;3.538;2023-08-06T00:23:31;4.68;;;0.22;;
47715;SDS011;33476;50.984;3.538;2023-08-06T00:25:56;9.25;;;0.50;;
47715;SDS011;33476;50.984;3.538;2023-08-06T00:28:21;5.63;;;0.50;;
47715;SDS011;33476;50.984;3.538;2023-08-06T00:30:52;6.13;;;0.30;;
47715;SDS011;33476;50.984;3.538;2023-08-06T00:33:18;4.13;;;0.30;;
47715;SDS011;33476;50.984;3.538;2023-08-06T00:35:43;3.15;;;0.22;;
47715;SDS011;33476;50.984;3.538;2023-08-06T00:38:09;4.30;;;0.30;;
47715;SDS011;33476;50.984;3.538;2023-08-06T00:40:34;4.38;;;0.28;;
47715;SDS011;33476;50.984;3.538;2023-08-06T00:43:00;8.77;;;0.30;;
47715;SDS011;33476;50.984;3.538;2023-08-06T00:45:25;5.35;;;0.52;;
47715;SDS011;33476;50.984;3.538;2023-08-06T00:47:51;9.55;;;0.73;;
47715;SDS011;33476;50.984;3.538;2023-08-06T00:50:17;3.65;;;0.20;;
47715;SDS011;33476;50.984;3.538;2023-08-06T00:52:43;5.95;;;0.28;;
47715;SDS011;33476;50.984;3.538;2023-08-06T00:55:08;6.50;;;0.30;;
47715;SDS011;33476;50.984;3.538;2023-08-06T00:57:35;10.85;;;0.55;;
47715;SDS011;33476;50.984;3.538;2023-08-06T01:00:00;12.32;;;0.77;;
47715;SDS011;33476;50.984;3.538;2023-08-06T01:02:26;5.63;;;0.52;;
47715;SDS011;33476;50.984;3.538;2023-08-06T01:04:51;12.27;;;0.65;;
47715;SDS011;33476;50.984;3.538;2023-08-06T01:10:15;7.88;;;0.55;;
47715;SDS011;33476;50.984;3.538;2023-08-06T01:15:48;6.32;;;0.40;;
47715;SDS011;33476;50.984;3.538;2023-08-06T01:18:15;6.57;;;0.47;;
47715;SDS011;33476;50.984;3.538;2023-08-06T01:20:41;6.28;;;0.63;;
47715;SDS011;33476;50.984;3.538;2023-08-06T01:23:06;3.90;;;0.30;;
47715;SDS011;33476;50.984;3.538;2023-08-06T01:26:07;2.60;;;0.38;;
47715;SDS011;33476;50.984;3.538;2023-08-06T01:31:41;1.33;;;0.10;;
47715;SDS011;33476;50.984;3.538;2023-08-06T01:34:13;1.15;;;0.10;;
47715;SDS011;33476;50.984;3.538;2023-08-06T01:36:42;2.00;;;0.10;;
47715;SDS011;33476;50.984;3.538;2023-08-06T01:39:08;0.70;;;0.10;;
47715;SDS011;33476;50.984;3.538;2023-08-06T01:41:34;1.05;;;0.10;;
47715;SDS011;33476;50.984;3.538;2023-08-06T01:43:59;0.60;;;0.10;;
47715;SDS011;33476;50.984;3.538;2023-08-06T01:46:25;3.30;;;0.10;;
47715;SDS011;33476;50.984;3.538;2023-08-06T01:48:50;2.13;;;0.20;;
47715;SDS011;33476;50.984;3.538;2023-08-06T01:51:16;1.75;;;0.20;;
47715;SDS011;33476;50.984;3.538;2023-08-06T01:53:41;1.05;;;0.20;;
47715;SDS011;33476;50.984;3.538;2023-08-06T01:56:06;5.07;;;0.20;;
47715;SDS011;33476;50.984;3.538;2023-08-06T01:58:32;2.42;;;0.38;;
47715;SDS011;33476;50.984;3.538;2023-08-06T02:00:57;1.48;;;0.20;;
47715;SDS011;33476;50.984;3.538;2023-08-06T02:03:22;2.53;;;0.32;;
47715;SDS011;33476;50.984;3.538;2023-08-06T02:05:48;2.45;;;0.20;;
47715;SDS011;33476;50.984;3.538;2023-08-06T02:08:13;3.78;;;0.40;;
47715;SDS011;33476;50.984;3.538;2023-08-06T02:10:39;1.33;;;0.20;;
47715;SDS011;33476;50.984;3.538;2023-08-06T02:13:04;2.42;;;0.20;;
47715;SDS011;33476;50.984;3.538;2023-08-06T02:15:30;5.50;;;0.30;;
47715;SDS011;33476;50.984;3.538;2023-08-06T02:17:55;2.13;;;0.22;;
47715;SDS011;33476;50.984;3.538;2023-08-06T02:20:20;2.97;;;0.38;;
47715;SDS011;33476;50.984;3.538;2023-08-06T02:22:46;3.13;;;0.60;;
47715;SDS011;33476;50.984;3.538;2023-08-06T02:25:11;2.25;;;0.75;;
47715;SDS011;33476;50.984;3.538;2023-08-06T02:27:37;3.20;;;0.50;;
47715;SDS011;33476;50.984;3.538;2023-08-06T02:30:02;6.03;;;0.80;;
47715;SDS011;33476;50.984;3.538;2023-08-06T02:32:29;4.65;;;0.85;;
47715;SDS011;33476;50.984;3.538;2023-08-06T02:34:56;6.88;;;0.90;;
47715;SDS011;33476;50.984;3.538;2023-08-06T02:37:22;7.63;;;0.80;;
47715;SDS011;33476;50.984;3.538;2023-08-06T02:39:47;5.55;;;0.93;;
47715;SDS011;33476;50.984;3.538;2023-08-06T02:42:12;7.10;;;0.98;;
47715;SDS011;33476;50.984;3.538;2023-08-06T02:44:38;4.35;;;1.15;;
47715;SDS011;33476;50.984;3.538;2023-08-06T02:47:03;5.65;;;1.40;;
47715;SDS011;33476;50.984;3.538;2023-08-06T02:49:29;8.10;;;1.63;;
47715;SDS011;33476;50.984;3.538;2023-08-06T02:51:54;4.47;;;1.42;;
47715;SDS011;33476;50.984;3.538;2023-08-06T02:54:20;7.38;;;1.55;;
47715;SDS011;33476;50.984;3.538;2023-08-06T02:56:45;7.18;;;1.90;;
47715;SDS011;33476;50.984;3.538;2023-08-06T02:59:11;6.93;;;2.10;;
47715;SDS011;33476;50.984;3.538;2023-08-06T03:01:37;7.78;;;2.45;;
47715;SDS011;33476;50.984;3.538;2023-08-06T03:04:03;10.95;;;2.58;;
47715;SDS011;33476;50.984;3.538;2023-08-06T03:06:28;13.57;;;2.65;;
47715;SDS011;33476;50.984;3.538;2023-08-06T03:08:54;7.03;;;2.10;;
47715;SDS011;33476;50.984;3.538;2023-08-06T03:11:19;9.35;;;2.53;;
47715;SDS011;33476;50.984;3.538;2023-08-06T03:13:45;10.82;;;2.72;;
47715;SDS011;33476;50.984;3.538;2023-08-06T03:16:12;12.02;;;2.45;;
47715;SDS011;33476;50.984;3.538;2023-08-06T03:18:37;9.13;;;2.92;;
47715;SDS011;33476;50.984;3.538;2023-08-06T03:21:03;9.27;;;2.90;;
47715;SDS011;33476;50.984;3.538;2023-08-06T03:23:28;8.48;;;2.55;;
47715;SDS011;33476;50.984;3.538;2023-08-06T03:25:53;6.25;;;2.30;;
47715;SDS011;33476;50.984;3.538;2023-08-06T03:28:19;7.80;;;1.98;;
47715;SDS011;33476;50.984;3.538;2023-08-06T03:30:44;6.60;;;1.95;;
47715;SDS011;33476;50.984;3.538;2023-08-06T03:33:10;10.68;;;1.80;;
47715;SDS011;33476;50.984;3.538;2023-08-06T03:35:35;5.18;;;1.60;;
47715;SDS011;33476;50.984;3.538;2023-08-06T03:38:01;5.80;;;1.63;;
47715;SDS011;33476;50.984;3.538;2023-08-06T03:40:26;8.68;;;1.45;;
47715;SDS011;33476;50.984;3.538;2023-08-06T03:42:52;7.82;;;1.23;;
47715;SDS011;33476;50.984;3.538;2023-08-06T03:45:17;5.28;;;1.55;;
47715;SDS011;33476;50.984;3.538;2023-08-06T03:47:42;5.45;;;1.33;;
47715;SDS011;33476;50.984;3.538;2023-08-06T03:50:08;9.90;;;1.35;;
47715;SDS011;33476;50.984;3.538;2023-08-06T03:52:33;4.82;;;0.90;;
47715;SDS011;33476;50.984;3.538;2023-08-06T03:54:59;7.22;;;0.95;;
47715;SDS011;33476;50.984;3.538;2023-08-06T03:57:24;4.88;;;1.23;;
47715;SDS011;33476;50.984;3.538;2023-08-06T03:59:49;10.00;;;1.02;;
47715;SDS011;33476;50.984;3.538;2023-08-06T04:02:15;7.70;;;0.98;;
47715;SDS011;33476;50.984;3.538;2023-08-06T04:04:40;7.63;;;1.05;;
47715;SDS011;33476;50.984;3.538;2023-08-06T04:07:06;7.20;;;0.95;;
47715;SDS011;33476;50.984;3.538;2023-08-06T04:09:31;5.70;;;0.95;;
47715;SDS011;33476;50.984;3.538;2023-08-06T04:11:56;6.07;;;0.88;;
47715;SDS011;33476;50.984;3.538;2023-08-06T04:14:23;8.82;;;0.90;;
47715;SDS011;33476;50.984;3.538;2023-08-06T04:16:49;5.18;;;0.70;;
47715;SDS011;33476;50.984;3.538;2023-08-06T04:19:14;5.78;;;0.98;;
47715;SDS011;33476;50.984;3.538;2023-08-06T04:21:39;8.52;;;1.10;;
47715;SDS011;33476;50.984;3.538;2023-08-06T04:24:05;5.18;;;0.85;;
47715;SDS011;33476;50.984;3.538;2023-08-06T04:26:30;5.68;;;1.05;;
47715;SDS011;33476;50.984;3.538;2023-08-06T04:28:55;2.83;;;0.55;;
47715;SDS011;33476;50.984;3.538;2023-08-06T04:31:21;6.47;;;0.70;;
47715;SDS011;33476;50.984;3.538;2023-08-06T04:33:48;10.10;;;1.13;;
47715;SDS011;33476;50.984;3.538;2023-08-06T04:36:13;7.35;;;0.88;;
47715;SDS011;33476;50.984;3.538;2023-08-06T04:38:39;5.40;;;0.95;;
47715;SDS011;33476;50.984;3.538;2023-08-06T04:41:06;6.60;;;1.20;;
47715;SDS011;33476;50.984;3.538;2023-08-06T04:43:31;5.35;;;0.80;;
47715;SDS011;33476;50.984;3.538;2023-08-06T04:45:57;5.68;;;0.98;;
47715;SDS011;33476;50.984;3.538;2023-08-06T04:48:22;6.47;;;0.93;;
47715;SDS011;33476;50.984;3.538;2023-08-06T04:50:48;6.82;;;1.20;;
47715;SDS011;33476;50.984;3.538;2023-08-06T04:53:15;2.95;;;0.85;;
47715;SDS011;33476;50.984;3.538;2023-08-06T04:55:42;4.63;;;1.15;;
47715;SDS011;33476;50.984;3.538;2023-08-06T04:58:08;7.60;;;1.10;;
47715;SDS011;33476;50.984;3.538;2023-08-06T05:00:34;5.90;;;1.20;;
47715;SDS011;33476;50.984;3.538;2023-08-06T05:03:00;5.80;;;1.20;;
47715;SDS011;33476;50.984;3.538;2023-08-06T05:05:28;9.25;;;1.40;;
47715;SDS011;33476;50.984;3.538;2023-08-06T05:07:54;8.88;;;1.65;;
47715;SDS011;33476;50.984;3.538;2023-08-06T05:10:21;10.38;;;2.10;;
47715;SDS011;33476;50.984;3.538;2023-08-06T05:12:46;9.68;;;1.88;;
47715;SDS011;33476;50.984;3.538;2023-08-06T05:15:12;9.32;;;2.17;;
47715;SDS011;33476;50.984;3.538;2023-08-06T05:17:37;5.20;;;1.77;;
47715;SDS011;33476;50.984;3.538;2023-08-06T05:20:03;8.48;;;1.90;;
47715;SDS011;33476;50.984;3.538;2023-08-06T05:22:28;7.72;;;2.55;;
47715;SDS011;33476;50.984;3.538;2023-08-06T05:24:54;9.23;;;2.28;;
47715;SDS011;33476;50.984;3.538;2023-08-06T05:27:19;7.75;;;1.33;;
47715;SDS011;33476;50.984;3.538;2023-08-06T05:29:45;6.40;;;1.42;;
47715;SDS011;33476;50.984;3.538;2023-08-06T05:32:10;10.48;;;1.40;;
47715;SDS011;33476;50.984;3.538;2023-08-06T05:34:36;6.05;;;1.10;;
47715;SDS011;33476;50.984;3.538;2023-08-06T05:37:01;5.95;;;1.02;;
47715;SDS011;33476;50.984;3.538;2023-08-06T05:39:27;8.15;;;0.70;;
47715;SDS011;33476;50.984;3.538;2023-08-06T05:41:53;6.68;;;0.85;;
47715;SDS011;33476;50.984;3.538;2023-08-06T05:44:18;7.72;;;0.80;;
47715;SDS011;33476;50.984;3.538;2023-08-06T05:46:43;8.63;;;0.52;;
47715;SDS011;33476;50.984;3.538;2023-08-06T05:49:09;5.50;;;0.50;;
47715;SDS011;33476;50.984;3.538;2023-08-06T05:51:34;5.10;;;0.55;;
47715;SDS011;33476;50.984;3.538;2023-08-06T05:54:00;3.85;;;0.47;;
47715;SDS011;33476;50.984;3.538;2023-08-06T05:56:25;5.90;;;0.22;;
47715;SDS011;33476;50.984;3.538;2023-08-06T05:58:50;8.18;;;0.52;;
47715;SDS011;33476;50.984;3.538;2023-08-06T06:01:18;4.97;;;0.45;;
47715;SDS011;33476;50.984;3.538;2023-08-06T06:03:43;5.35;;;0.40;;
47715;SDS011;33476;50.984;3.538;2023-08-06T06:06:09;3.80;;;0.30;;
47715;SDS011;33476;50.984;3.538;2023-08-06T06:08:34;8.68;;;0.50;;
47715;SDS011;33476;50.984;3.538;2023-08-06T06:10:59;11.55;;;0.68;;
47715;SDS011;33476;50.984;3.538;2023-08-06T06:13:25;7.65;;;0.30;;
47715;SDS011;33476;50.984;3.538;2023-08-06T06:15:50;7.38;;;0.63;;
47715;SDS011;33476;50.984;3.538;2023-08-06T06:18:20;7.50;;;0.55;;
47715;SDS011;33476;50.984;3.538;2023-08-06T06:20:45;6.45;;;0.63;;
47715;SDS011;33476;50.984;3.538;2023-08-06T06:23:10;8.68;;;0.45;;
47715;SDS011;33476;50.984;3.538;2023-08-06T06:25:36;4.15;;;0.28;;
47715;SDS011;33476;50.984;3.538;2023-08-06T06:28:01;6.93;;;0.43;;
47715;SDS011;33476;50.984;3.538;2023-08-06T06:30:27;7.03;;;0.50;;
47715;SDS011;33476;50.984;3.538;2023-08-06T06:32:52;6.90;;;0.45;;
47715;SDS011;33476;50.984;3.538;2023-08-06T06:35:17;4.80;;;0.50;;
47715;SDS011;33476;50.984;3.538;2023-08-06T06:37:43;4.90;;;0.47;;
47715;SDS011;33476;50.984;3.538;2023-08-06T06:40:08;4.75;;;0.50;;
47715;SDS011;33476;50.984;3.538;2023-08-06T06:42:34;10.57;;;0.60;;
47715;SDS011;33476;50.984;3.538;2023-08-06T06:44:59;6.20;;;0.50;;
47715;SDS011;33476;50.984;3.538;2023-08-06T06:47:25;4.50;;;0.28;;
47715;SDS011;33476;50.984;3.538;2023-08-06T06:49:50;10.05;;;0.80;;
47715;SDS011;33476;50.984;3.538;2023-08-06T06:52:16;6.10;;;0.43;;
47715;SDS011;33476;50.984;3.538;2023-08-06T06:54:41;5.53;;;0.50;;
47715;SDS011;33476;50.984;3.538;2023-08-06T06:57:07;5.15;;;0.35;;
47715;SDS011;33476;50.984;3.538;2023-08-06T06:59:32;4.85;;;0.40;;
47715;SDS011;33476;50.984;3.538;2023-08-06T07:01:57;9.15;;;0.90;;
47715;SDS011;33476;50.984;3.538;2023-08-06T07:04:23;5.82;;;0.60;;
47715;SDS011;33476;50.984;3.538;2023-08-06T07:06:48;2.83;;;0.50;;
47715;SDS011;33476;50.984;3.538;2023-08-06T07:09:13;6.50;;;0.73;;
47715;SDS011;33476;50.984;3.538;2023-08-06T07:11:39;3.17;;;0.40;;
47715;SDS011;33476;50.984;3.538;2023-08-06T07:14:04;8.05;;;0.73;;
47715;SDS011;33476;50.984;3.538;2023-08-06T07:16:29;7.20;;;0.55;;
47715;SDS011;33476;50.984;3.538;2023-08-06T07:18:55;4.80;;;0.22;;
47715;SDS011;33476;50.984;3.538;2023-08-06T07:21:20;4.03;;;0.30;;
47715;SDS011;33476;50.984;3.538;2023-08-06T07:23:46;2.05;;;0.10;;
47715;SDS011;33476;50.984;3.538;2023-08-06T07:26:14;4.28;;;0.20;;
47715;SDS011;33476;50.984;3.538;2023-08-06T07:28:40;3.78;;;0.28;;
47715;SDS011;33476;50.984;3.538;2023-08-06T07:31:05;3.72;;;0.35;;
47715;SDS011;33476;50.984;3.538;2023-08-06T07:33:31;6.47;;;0.38;;
47715;SDS011;33476;50.984;3.538;2023-08-06T07:35:56;5.13;;;0.68;;
47715;SDS011;33476;50.984;3.538;2023-08-06T07:38:21;5.80;;;0.30;;
47715;SDS011;33476;50.984;3.538;2023-08-06T07:40:47;4.72;;;0.40;;
47715;SDS011;33476;50.984;3.538;2023-08-06T07:43:12;3.80;;;0.32;;
47715;SDS011;33476;50.984;3.538;2023-08-06T07:45:37;3.38;;;0.50;;
47715;SDS011;33476;50.984;3.538;2023-08-06T07:48:03;5.75;;;0.45;;
47715;SDS011;33476;50.984;3.538;2023-08-06T07:50:29;4.72;;;0.70;;
47715;SDS011;33476;50.984;3.538;2023-08-06T07:52:54;6.65;;;0.60;;
47715;SDS011;33476;50.984;3.538;2023-08-06T07:55:20;4.70;;;0.65;;
47715;SDS011;33476;50.984;3.538;2023-08-06T07:57:45;4.30;;;0.57;;
47715;SDS011;33476;50.984;3.538;2023-08-06T08:00:11;5.38;;;0.40;;
47715;SDS011;33476;50.984;3.538;2023-08-06T08:02:36;3.80;;;0.40;;
47715;SDS011;33476;50.984;3.538;2023-08-06T08:05:02;7.57;;;0.93;;
47715;SDS011;33476;50.984;3.538;2023-08-06T08:07:27;2.45;;;0.30;;
47715;SDS011;33476;50.984;3.538;2023-08-06T08:09:55;5.82;;;0.40;;
47715;SDS011;33476;50.984;3.538;2023-08-06T08:12:21;6.57;;;0.30;;
47715;SDS011;33476;50.984;3.538;2023-08-06T08:14:46;5.38;;;0.63;;
47715;SDS011;33476;50.984;3.538;2023-08-06T08:17:11;5.70;;;0.40;;
47715;SDS011;33476;50.984;3.538;2023-08-06T08:19:37;5.30;;;0.63;;
47715;SDS011;33476;50.984;3.538;2023-08-06T08:22:02;8.25;;;0.50;;
47715;SDS011;33476;50.984;3.538;2023-08-06T08:24:28;2.47;;;0.30;;
47715;SDS011;33476;50.984;3.538;2023-08-06T08:26:55;5.10;;;0.50;;
47715;SDS011;33476;50.984;3.538;2023-08-06T08:29:21;5.93;;;0.50;;
47715;SDS011;33476;50.984;3.538;2023-08-06T08:31:46;8.45;;;0.85;;
47715;SDS011;33476;50.984;3.538;2023-08-06T08:34:14;6.90;;;0.40;;
47715;SDS011;33476;50.984;3.538;2023-08-06T08:36:48;5.90;;;0.50;;
47715;SDS011;33476;50.984;3.538;2023-08-06T08:39:15;6.47;;;0.60;;
47715;SDS011;33476;50.984;3.538;2023-08-06T08:41:40;4.60;;;0.55;;
47715;SDS011;33476;50.984;3.538;2023-08-06T08:44:07;7.00;;;0.60;;
47715;SDS011;33476;50.984;3.538;2023-08-06T08:46:40;3.00;;;0.57;;
47715;SDS011;33476;50.984;3.538;2023-08-06T08:49:06;3.45;;;0.43;;
47715;SDS011;33476;50.984;3.538;2023-08-06T08:51:32;5.80;;;0.57;;
47715;SDS011;33476;50.984;3.538;2023-08-06T08:53:59;4.60;;;0.30;;
47715;SDS011;33476;50.984;3.538;2023-08-06T08:56:27;5.07;;;0.50;;
47715;SDS011;33476;50.984;3.538;2023-08-06T08:58:53;3.38;;;0.43;;
47715;SDS011;33476;50.984;3.538;2023-08-06T09:01:20;6.50;;;0.50;;
47715;SDS011;33476;50.984;3.538;2023-08-06T09:03:47;5.15;;;0.22;;
47715;SDS011;33476;50.984;3.538;2023-08-06T09:06:13;5.55;;;0.40;;
47715;SDS011;33476;50.984;3.538;2023-08-06T09:08:41;9.48;;;0.50;;
47715;SDS011;33476;50.984;3.538;2023-08-06T09:11:15;7.18;;;0.60;;
47715;SDS011;33476;50.984;3.538;2023-08-06T09:13:42;6.25;;;0.57;;
47715;SDS011;33476;50.984;3.538;2023-08-06T09:16:07;6.25;;;0.60;;
47715;SDS011;33476;50.984;3.538;2023-08-06T09:18:32;4.03;;;0.65;;
47715;SDS011;33476;50.984;3.538;2023-08-06T09:20:58;4.57;;;0.40;;
47715;SDS011;33476;50.984;3.538;2023-08-06T09:23:30;4.70;;;0.88;;
47715;SDS011;33476;50.984;3.538;2023-08-06T09:25:56;3.85;;;0.40;;
47715;SDS011;33476;50.984;3.538;2023-08-06T09:28:22;8.55;;;0.55;;
47715;SDS011;33476;50.984;3.538;2023-08-06T09:30:49;9.25;;;0.45;;
47715;SDS011;33476;50.984;3.538;2023-08-06T09:33:18;5.18;;;0.60;;
47715;SDS011;33476;50.984;3.538;2023-08-06T09:35:45;5.53;;;0.47;;
47715;SDS011;33476;50.984;3.538;2023-08-06T09:38:11;4.70;;;0.50;;
47715;SDS011;33476;50.984;3.538;2023-08-06T09:40:38;5.53;;;0.47;;
47715;SDS011;33476;50.984;3.538;2023-08-06T09:43:04;5.15;;;0.60;;
47715;SDS011;33476;50.984;3.538;2023-08-06T09:45:34;9.75;;;0.65;;
47715;SDS011;33476;50.984;3.538;2023-08-06T09:48:02;4.72;;;0.73;;
47715;SDS011;33476;50.984;3.538;2023-08-06T09:50:30;7.72;;;0.57;;
47715;SDS011;33476;50.984;3.538;2023-08-06T09:52:57;6.35;;;0.75;;
47715;SDS011;33476;50.984;3.538;2023-08-06T09:55:23;6.05;;;0.73;;
47715;SDS011;33476;50.984;3.538;2023-08-06T09:57:52;6.90;;;0.50;;
47715;SDS011;33476;50.984;3.538;2023-08-06T10:00:19;6.85;;;0.60;;
47715;SDS011;33476;50.984;3.538;2023-08-06T10:02:45;9.90;;;0.80;;
47715;SDS011;33476;50.984;3.538;2023-08-06T10:05:11;9.57;;;0.60;;
47715;SDS011;33476;50.984;3.538;2023-08-06T10:07:36;5.45;;;0.65;;
47715;SDS011;33476;50.984;3.538;2023-08-06T10:10:05;8.10;;;0.73;;
47715;SDS011;33476;50.984;3.538;2023-08-06T10:12:32;2.47;;;0.20;;
47715;SDS011;33476;50.984;3.538;2023-08-06T10:15:01;5.28;;;0.70;;
47715;SDS011;33476;50.984;3.538;2023-08-06T10:17:31;6.20;;;0.50;;
47715;SDS011;33476;50.984;3.538;2023-08-06T10:19:59;6.40;;;0.70;;
47715;SDS011;33476;50.984;3.538;2023-08-06T10:22:25;4.35;;;0.40;;
47715;SDS011;33476;50.984;3.538;2023-08-06T10:24:56;5.70;;;0.63;;
47715;SDS011;33476;50.984;3.538;2023-08-06T10:30:20;4.05;;;0.40;;
47715;SDS011;33476;50.984;3.538;2023-08-06T10:32:46;6.80;;;0.45;;
47715;SDS011;33476;50.984;3.538;2023-08-06T10:35:28;3.83;;;0.50;;
47715;SDS011;33476;50.984;3.538;2023-08-06T10:41:04;6.25;;;0.50;;
47715;SDS011;33476;50.984;3.538;2023-08-06T10:43:29;7.55;;;0.60;;
47715;SDS011;33476;50.984;3.538;2023-08-06T10:45:55;4.70;;;0.52;;
47715;SDS011;33476;50.984;3.538;2023-08-06T10:50:59;6.65;;;0.40;;
47715;SDS011;33476;50.984;3.538;2023-08-06T10:53:26;4.38;;;0.40;;
47715;SDS011;33476;50.984;3.538;2023-08-06T10:55:51;7.88;;;0.68;;
47715;SDS011;33476;50.984;3.538;2023-08-06T10:58:17;5.65;;;0.30;;
47715;SDS011;33476;50.984;3.538;2023-08-06T11:00:42;6.15;;;0.60;;
47715;SDS011;33476;50.984;3.538;2023-08-06T11:03:08;5.38;;;0.40;;
47715;SDS011;33476;50.984;3.538;2023-08-06T11:05:33;7.07;;;0.82;;
47715;SDS011;33476;50.984;3.538;2023-08-06T11:07:59;7.20;;;1.00;;
47715;SDS011;33476;50.984;3.538;2023-08-06T11:10:24;6.32;;;0.65;;
47715;SDS011;33476;50.984;3.538;2023-08-06T11:12:50;5.28;;;0.32;;
47715;SDS011;33476;50.984;3.538;2023-08-06T11:15:16;7.78;;;0.73;;
47715;SDS011;33476;50.984;3.538;2023-08-06T11:17:41;6.88;;;0.60;;
47715;SDS011;33476;50.984;3.538;2023-08-06T11:20:07;5.50;;;0.50;;
47715;SDS011;33476;50.984;3.538;2023-08-06T11:22:33;4.40;;;0.50;;
47715;SDS011;33476;50.984;3.538;2023-08-06T11:24:58;4.78;;;0.50;;
47715;SDS011;33476;50.984;3.538;2023-08-06T11:27:26;4.93;;;0.20;;
47715;SDS011;33476;50.984;3.538;2023-08-06T11:29:52;5.60;;;0.40;;
47715;SDS011;33476;50.984;3.538;2023-08-06T11:32:17;5.05;;;0.63;;
47715;SDS011;33476;50.984;3.538;2023-08-06T11:34:43;5.95;;;0.40;;
47715;SDS011;33476;50.984;3.538;2023-08-06T11:37:09;9.20;;;0.55;;
47715;SDS011;33476;50.984;3.538;2023-08-06T11:39:36;7.22;;;0.70;;
47715;SDS011;33476;50.984;3.538;2023-08-06T11:42:02;5.88;;;0.50;;
47715;SDS011;33476;50.984;3.538;2023-08-06T11:44:30;6.68;;;0.57;;
47715;SDS011;33476;50.984;3.538;2023-08-06T11:46:58;2.85;;;0.47;;
47715;SDS011;33476;50.984;3.538;2023-08-06T11:52:14;5.57;;;0.90;;
47715;SDS011;33476;50.984;3.538;2023-08-06T11:54:43;2.72;;;0.60;;
47715;SDS011;33476;50.984;3.538;2023-08-06T11:57:10;6.63;;;0.77;;
47715;SDS011;33476;50.984;3.538;2023-08-06T11:59:36;7.07;;;0.75;;
47715;SDS011;33476;50.984;3.538;2023-08-06T12:02:03;4.68;;;0.40;;
47715;SDS011;33476;50.984;3.538;2023-08-06T12:04:56;5.97;;;0.93;;
47715;SDS011;33476;50.984;3.538;2023-08-06T12:07:30;5.60;;;0.45;;
47715;SDS011;33476;50.984;3.538;2023-08-06T12:09:56;8.20;;;0.60;;
47715;SDS011;33476;50.984;3.538;2023-08-06T12:12:22;2.92;;;0.57;;
47715;SDS011;33476;50.984;3.538;2023-08-06T12:14:48;5.82;;;0.95;;
47715;SDS011;33476;50.984;3.538;2023-08-06T12:17:14;4.35;;;0.47;;
47715;SDS011;33476;50.984;3.538;2023-08-06T12:19:39;4.82;;;0.60;;
47715;SDS011;33476;50.984;3.538;2023-08-06T12:22:04;4.28;;;0.65;;
47715;SDS011;33476;50.984;3.538;2023-08-06T12:24:30;3.00;;;0.45;;
47715;SDS011;33476;50.984;3.538;2023-08-06T12:26:59;4.15;;;0.35;;
47715;SDS011;33476;50.984;3.538;2023-08-06T12:29:25;8.13;;;0.85;;
47715;SDS011;33476;50.984;3.538;2023-08-06T12:31:51;2.75;;;0.50;;
47715;SDS011;33476;50.984;3.538;2023-08-06T12:34:16;3.72;;;0.40;;
47715;SDS011;33476;50.984;3.538;2023-08-06T12:36:41;2.55;;;0.40;;
47715;SDS011;33476;50.984;3.538;2023-08-06T12:39:07;4.05;;;0.43;;
47715;SDS011;33476;50.984;3.538;2023-08-06T12:41:32;4.05;;;0.55;;
47715;SDS011;33476;50.984;3.538;2023-08-06T12:43:58;3.33;;;0.57;;
47715;SDS011;33476;50.984;3.538;2023-08-06T12:46:23;2.65;;;0.40;;
47715;SDS011;33476;50.984;3.538;2023-08-06T12:48:48;7.50;;;0.60;;
47715;SDS011;33476;50.984;3.538;2023-08-06T12:51:14;6.05;;;0.60;;
47715;SDS011;33476;50.984;3.538;2023-08-06T12:53:39;6.18;;;0.30;;
47715;SDS011;33476;50.984;3.538;2023-08-06T12:56:05;4.20;;;0.52;;
47715;SDS011;33476;50.984;3.538;2023-08-06T12:58:30;5.63;;;0.75;;
47715;SDS011;33476;50.984;3.538;2023-08-06T13:00:56;6.15;;;0.28;;
47715;SDS011;33476;50.984;3.538;2023-08-06T13:03:21;6.80;;;0.30;;
47715;SDS011;33476;50.984;3.538;2023-08-06T13:05:47;3.20;;;0.28;;
47715;SDS011;33476;50.984;3.538;2023-08-06T13:08:12;6.95;;;0.77;;
47715;SDS011;33476;50.984;3.538;2023-08-06T13:10:37;4.68;;;0.47;;
47715;SDS011;33476;50.984;3.538;2023-08-06T13:13:03;8.43;;;0.50;;
47715;SDS011;33476;50.984;3.538;2023-08-06T13:15:29;3.17;;;0.60;;
47715;SDS011;33476;50.984;3.538;2023-08-06T13:17:54;14.23;;;0.68;;
47715;SDS011;33476;50.984;3.538;2023-08-06T13:20:20;3.83;;;0.45;;
47715;SDS011;33476;50.984;3.538;2023-08-06T13:22:45;3.63;;;0.32;;
47715;SDS011;33476;50.984;3.538;2023-08-06T13:25:11;1.60;;;0.20;;
47715;SDS011;33476;50.984;3.538;2023-08-06T13:27:39;4.07;;;0.40;;
47715;SDS011;33476;50.984;3.538;2023-08-06T13:30:04;5.50;;;0.70;;
47715;SDS011;33476;50.984;3.538;2023-08-06T13:32:30;10.10;;;0.73;;
47715;SDS011;33476;50.984;3.538;2023-08-06T13:34:57;6.32;;;0.60;;
47715;SDS011;33476;50.984;3.538;2023-08-06T13:37:22;6.25;;;0.50;;
47715;SDS011;33476;50.984;3.538;2023-08-06T13:39:48;10.40;;;0.70;;
47715;SDS011;33476;50.984;3.538;2023-08-06T13:42:13;7.07;;;0.43;;
47715;SDS011;33476;50.984;3.538;2023-08-06T13:44:38;5.93;;;0.68;;
47715;SDS011;33476;50.984;3.538;2023-08-06T13:47:04;6.40;;;0.50;;
47715;SDS011;33476;50.984;3.538;2023-08-06T13:49:29;3.92;;;0.40;;
47715;SDS011;33476;50.984;3.538;2023-08-06T13:51:55;5.63;;;0.65;;
47715;SDS011;33476;50.984;3.538;2023-08-06T13:54:20;4.78;;;0.50;;
47715;SDS011;33476;50.984;3.538;2023-08-06T13:56:46;6.65;;;0.70;;
47715;SDS011;33476;50.984;3.538;2023-08-06T13:59:11;5.20;;;0.52;;
47715;SDS011;33476;50.984;3.538;2023-08-06T14:01:38;6.80;;;0.73;;
47715;SDS011;33476;50.984;3.538;2023-08-06T14:04:04;7.68;;;0.40;;
47715;SDS011;33476;50.984;3.538;2023-08-06T14:06:29;4.03;;;0.30;;
47715;SDS011;33476;50.984;3.538;2023-08-06T14:08:56;6.13;;;0.38;;
47715;SDS011;33476;50.984;3.538;2023-08-06T14:11:21;6.82;;;0.73;;
47715;SDS011;33476;50.984;3.538;2023-08-06T14:13:47;8.75;;;1.05;;
47715;SDS011;33476;50.984;3.538;2023-08-06T14:16:12;5.32;;;0.60;;
47715;SDS011;33476;50.984;3.538;2023-08-06T14:18:38;3.38;;;0.60;;
47715;SDS011;33476;50.984;3.538;2023-08-06T14:21:03;5.88;;;0.80;;
47715;SDS011;33476;50.984;3.538;2023-08-06T14:23:29;4.25;;;0.65;;
47715;SDS011;33476;50.984;3.538;2023-08-06T14:25:54;6.10;;;0.80;;
47715;SDS011;33476;50.984;3.538;2023-08-06T14:28:20;6.45;;;0.80;;
47715;SDS011;33476;50.984;3.538;2023-08-06T14:30:45;8.23;;;0.90;;
47715;SDS011;33476;50.984;3.538;2023-08-06T14:33:11;6.60;;;0.60;;
47715;SDS011;33476;50.984;3.538;2023-08-06T14:35:36;4.28;;;0.55;;
47715;SDS011;33476;50.984;3.538;2023-08-06T14:38:01;2.90;;;0.30;;
47715;SDS011;33476;50.984;3.538;2023-08-06T14:40:27;4.43;;;0.35;;
47715;SDS011;33476;50.984;3.538;2023-08-06T14:42:58;4.78;;;0.80;;
47715;SDS011;33476;50.984;3.538;2023-08-06T14:45:24;2.60;;;0.40;;
47715;SDS011;33476;50.984;3.538;2023-08-06T14:47:49;2.08;;;0.57;;
47715;SDS011;33476;50.984;3.538;2023-08-06T14:50:15;4.40;;;0.40;;
47715;SDS011;33476;50.984;3.538;2023-08-06T14:52:40;5.00;;;0.35;;
47715;SDS011;33476;50.984;3.538;2023-08-06T14:55:06;3.70;;;0.47;;
47715;SDS011;33476;50.984;3.538;2023-08-06T14:57:31;3.15;;;0.47;;
47715;SDS011;33476;50.984;3.538;2023-08-06T14:59:57;3.65;;;0.60;;
47715;SDS011;33476;50.984;3.538;2023-08-06T15:02:22;5.82;;;0.52;;